EAG5510 SBRF-SBSV
Flight info
| Callsign | EAG5510 |
|---|---|
| Flight time | 0h 57m |
| Altitude | 34000 |
| Route | MEXAR UZ14 AKPAS |
| Aircraft | B738/M-SDE2E3FGHIRWXY/LB1 |
Departure
| Time | 2026-04-29 13:54 |
|---|---|
| Airport | Recife/Guararapes - Gilberto Freyre International Airport (SBRF) |
Arrival
| Time | 2026-04-29 14:51 |
|---|---|
| Airport | Deputado Luiz Eduardo Magalhães International Airport (SBSV) |
| Time | Latitude | Longitude | Altitude | Speed | Heading |
|---|---|---|---|---|---|
| 2026-04-29 13:31 | -8.13059 | -34.91959 | 40 ft | 0 kts | 73° |
| 2026-04-29 13:44 | -8.13064 | -34.91976 | 40 ft | 4 kts | 68° |
| 2026-04-29 13:45 | -8.13076 | -34.92000 | 37 ft | 4 kts | 52° |
| 2026-04-29 13:45 | -8.13095 | -34.92016 | 38 ft | 4 kts | 13° |
| 2026-04-29 13:45 | -8.13107 | -34.92017 | 39 ft | 1 kts | 342° |
| 2026-04-29 13:47 | -8.13092 | -34.92022 | 39 ft | 5 kts | 342° |
| 2026-04-29 13:47 | -8.13057 | -34.92033 | 40 ft | 5 kts | 342° |
| 2026-04-29 13:48 | -8.13020 | -34.92046 | 40 ft | 7 kts | 342° |
| 2026-04-29 13:48 | -8.12947 | -34.92069 | 40 ft | 15 kts | 342° |
| 2026-04-29 13:48 | -8.12834 | -34.92107 | 40 ft | 19 kts | 342° |
| 2026-04-29 13:48 | -8.12704 | -34.92150 | 41 ft | 20 kts | 342° |
| 2026-04-29 13:49 | -8.12578 | -34.92191 | 39 ft | 19 kts | 342° |
| 2026-04-29 13:49 | -8.12455 | -34.92231 | 40 ft | 18 kts | 342° |
| 2026-04-29 13:49 | -8.12336 | -34.92271 | 38 ft | 18 kts | 342° |
| 2026-04-29 13:49 | -8.12221 | -34.92309 | 38 ft | 17 kts | 342° |
| 2026-04-29 13:50 | -8.12111 | -34.92345 | 40 ft | 16 kts | 342° |
| 2026-04-29 13:50 | -8.12004 | -34.92380 | 38 ft | 16 kts | 342° |
| 2026-04-29 13:50 | -8.11890 | -34.92417 | 39 ft | 18 kts | 342° |
| 2026-04-29 13:50 | -8.11776 | -34.92454 | 39 ft | 17 kts | 342° |
| 2026-04-29 13:51 | -8.11715 | -34.92474 | 39 ft | 8 kts | 342° |
| 2026-04-29 13:51 | -8.11663 | -34.92491 | 37 ft | 8 kts | 341° |
| 2026-04-29 13:51 | -8.11602 | -34.92519 | 40 ft | 11 kts | 328° |
| 2026-04-29 13:51 | -8.11542 | -34.92567 | 40 ft | 11 kts | 320° |
| 2026-04-29 13:52 | -8.11486 | -34.92614 | 40 ft | 11 kts | 320° |
| 2026-04-29 13:52 | -8.11431 | -34.92662 | 40 ft | 10 kts | 318° |
| 2026-04-29 13:52 | -8.11406 | -34.92709 | 40 ft | 6 kts | 238° |
| 2026-04-29 13:52 | -8.11444 | -34.92709 | 40 ft | 6 kts | 166° |
| 2026-04-29 13:53 | -8.11483 | -34.92697 | 38 ft | 6 kts | 162° |
| 2026-04-29 13:53 | -8.11628 | -34.92649 | 39 ft | 54 kts | 162° |
| 2026-04-29 13:53 | -8.12216 | -34.92455 | 40 ft | 122 kts | 162° |
| 2026-04-29 13:53 | -8.13189 | -34.92124 | 131 ft | 168 kts | 160° |
| 2026-04-29 13:54 | -8.14322 | -34.91736 | 897 ft | 170 kts | 162° |
| 2026-04-29 13:54 | -8.15390 | -34.91365 | 1965 ft | 158 kts | 161° |
| 2026-04-29 13:54 | -8.16488 | -34.90992 | 2538 ft | 180 kts | 161° |
| 2026-04-29 13:54 | -8.17832 | -34.90891 | 2796 ft | 209 kts | 187° |
| 2026-04-29 13:55 | -8.19333 | -34.91148 | 3073 ft | 227 kts | 187° |
| 2026-04-29 13:55 | -8.20937 | -34.91405 | 3468 ft | 244 kts | 187° |
| 2026-04-29 13:55 | -8.22679 | -34.91675 | 3978 ft | 256 kts | 187° |
| 2026-04-29 13:55 | -8.24442 | -34.91944 | 4826 ft | 259 kts | 186° |
| 2026-04-29 13:56 | -8.26248 | -34.92214 | 5555 ft | 264 kts | 186° |
| 2026-04-29 13:56 | -8.28076 | -34.92485 | 6358 ft | 267 kts | 185° |
| 2026-04-29 13:56 | -8.29894 | -34.92751 | 7101 ft | 270 kts | 186° |
| 2026-04-29 13:56 | -8.31781 | -34.93026 | 7700 ft | 276 kts | 186° |
| 2026-04-29 13:57 | -8.33687 | -34.93303 | 7979 ft | 278 kts | 186° |
| 2026-04-29 13:57 | -8.35620 | -34.93584 | 7978 ft | 282 kts | 186° |
| 2026-04-29 13:57 | -8.37555 | -34.93865 | 7980 ft | 279 kts | 186° |
| 2026-04-29 13:57 | -8.39471 | -34.94142 | 7991 ft | 278 kts | 186° |
| 2026-04-29 13:58 | -8.41385 | -34.94419 | 7986 ft | 277 kts | 186° |
| 2026-04-29 13:58 | -8.43295 | -34.94697 | 7995 ft | 277 kts | 187° |
| 2026-04-29 13:58 | -8.45120 | -34.95352 | 8008 ft | 285 kts | 210° |
| 2026-04-29 13:58 | -8.46759 | -34.96524 | 8529 ft | 290 kts | 213° |
| 2026-04-29 13:59 | -8.48385 | -34.97739 | 9312 ft | 292 kts | 213° |
| 2026-04-29 13:59 | -8.50002 | -34.98954 | 10013 ft | 296 kts | 214° |
| 2026-04-29 13:59 | -8.51691 | -35.00219 | 10371 ft | 313 kts | 214° |
| 2026-04-29 13:59 | -8.53509 | -35.01574 | 10532 ft | 335 kts | 214° |
| 2026-04-29 14:00 | -8.55449 | -35.03018 | 10675 ft | 356 kts | 214° |
| 2026-04-29 14:00 | -8.57498 | -35.04542 | 10822 ft | 374 kts | 214° |
| 2026-04-29 14:00 | -8.59617 | -35.06120 | 11218 ft | 381 kts | 214° |
| 2026-04-29 14:00 | -8.61765 | -35.07718 | 11733 ft | 385 kts | 214° |
| 2026-04-29 14:01 | -8.63933 | -35.09332 | 12291 ft | 389 kts | 214° |
| 2026-04-29 14:01 | -8.66120 | -35.10958 | 12822 ft | 393 kts | 214° |
| 2026-04-29 14:01 | -8.68336 | -35.12605 | 13344 ft | 397 kts | 214° |
| 2026-04-29 14:01 | -8.70575 | -35.14269 | 13885 ft | 401 kts | 214° |
| 2026-04-29 14:02 | -8.72831 | -35.15945 | 14362 ft | 405 kts | 214° |
| 2026-04-29 14:02 | -8.75107 | -35.17637 | 14872 ft | 408 kts | 214° |
| 2026-04-29 14:02 | -8.77409 | -35.19348 | 15360 ft | 412 kts | 214° |
| 2026-04-29 14:02 | -8.79702 | -35.21053 | 15843 ft | 415 kts | 214° |
| 2026-04-29 14:03 | -8.82041 | -35.22793 | 16315 ft | 419 kts | 214° |
| 2026-04-29 14:03 | -8.84403 | -35.24549 | 16769 ft | 424 kts | 214° |
| 2026-04-29 14:03 | -8.86790 | -35.26325 | 17224 ft | 427 kts | 214° |
| 2026-04-29 14:03 | -8.89199 | -35.28112 | 17680 ft | 431 kts | 214° |
| 2026-04-29 14:04 | -8.91653 | -35.29870 | 18119 ft | 434 kts | 213° |
| 2026-04-29 14:04 | -8.94147 | -35.31618 | 18493 ft | 438 kts | 212° |
| 2026-04-29 14:04 | -8.96661 | -35.33369 | 18891 ft | 440 kts | 212° |
| 2026-04-29 14:04 | -8.99187 | -35.35131 | 19315 ft | 442 kts | 212° |
| 2026-04-29 14:05 | -9.01720 | -35.36905 | 19721 ft | 444 kts | 212° |
| 2026-04-29 14:05 | -9.04266 | -35.38694 | 20105 ft | 447 kts | 212° |
| 2026-04-29 14:05 | -9.06824 | -35.40494 | 20476 ft | 450 kts | 212° |
| 2026-04-29 14:05 | -9.09399 | -35.42310 | 20843 ft | 452 kts | 212° |
| 2026-04-29 14:06 | -9.11987 | -35.44135 | 21229 ft | 454 kts | 212° |
| 2026-04-29 14:06 | -9.14555 | -35.45946 | 21583 ft | 457 kts | 212° |
| 2026-04-29 14:06 | -9.17168 | -35.47789 | 21929 ft | 459 kts | 212° |
| 2026-04-29 14:06 | -9.19795 | -35.49642 | 22272 ft | 461 kts | 212° |
| 2026-04-29 14:07 | -9.22437 | -35.51505 | 22617 ft | 464 kts | 212° |
| 2026-04-29 14:07 | -9.25091 | -35.53374 | 22955 ft | 466 kts | 211° |
| 2026-04-29 14:07 | -9.27758 | -35.55251 | 23276 ft | 468 kts | 211° |
| 2026-04-29 14:07 | -9.30438 | -35.57136 | 23606 ft | 470 kts | 211° |
| 2026-04-29 14:08 | -9.33127 | -35.59029 | 23870 ft | 472 kts | 211° |
| 2026-04-29 14:08 | -9.35827 | -35.60930 | 24177 ft | 472 kts | 211° |
| 2026-04-29 14:08 | -9.38532 | -35.62837 | 24467 ft | 473 kts | 212° |
| 2026-04-29 14:08 | -9.41235 | -35.64743 | 24729 ft | 475 kts | 212° |
| 2026-04-29 14:09 | -9.43958 | -35.66662 | 24989 ft | 477 kts | 212° |
| 2026-04-29 14:09 | -9.46684 | -35.68585 | 25240 ft | 478 kts | 212° |
| 2026-04-29 14:09 | -9.49421 | -35.70515 | 25506 ft | 479 kts | 212° |
| 2026-04-29 14:09 | -9.52162 | -35.72449 | 25767 ft | 480 kts | 212° |
| 2026-04-29 14:10 | -9.54910 | -35.74388 | 26020 ft | 482 kts | 212° |
| 2026-04-29 14:10 | -9.57667 | -35.76334 | 26251 ft | 483 kts | 212° |
| 2026-04-29 14:10 | -9.60395 | -35.78260 | 26489 ft | 485 kts | 212° |
| 2026-04-29 14:10 | -9.63169 | -35.80218 | 26731 ft | 486 kts | 212° |
| 2026-04-29 14:11 | -9.65943 | -35.82177 | 26963 ft | 487 kts | 212° |
| 2026-04-29 14:11 | -9.68724 | -35.84142 | 27188 ft | 488 kts | 212° |
| 2026-04-29 14:11 | -9.71516 | -35.86114 | 27426 ft | 489 kts | 212° |
| 2026-04-29 14:11 | -9.74312 | -35.88090 | 27633 ft | 491 kts | 212° |
| 2026-04-29 14:12 | -9.77119 | -35.90074 | 27849 ft | 492 kts | 212° |
| 2026-04-29 14:12 | -9.79929 | -35.92061 | 28059 ft | 493 kts | 212° |
| 2026-04-29 14:12 | -9.82746 | -35.94052 | 28286 ft | 493 kts | 212° |
| 2026-04-29 14:12 | -9.85557 | -35.96040 | 28609 ft | 492 kts | 212° |
| 2026-04-29 14:13 | -9.88359 | -35.98024 | 28977 ft | 489 kts | 212° |
| 2026-04-29 14:13 | -9.91145 | -35.99995 | 29332 ft | 488 kts | 213° |
| 2026-04-29 14:13 | -9.93925 | -36.01963 | 29636 ft | 487 kts | 213° |
| 2026-04-29 14:13 | -9.96709 | -36.03933 | 29961 ft | 486 kts | 213° |
| 2026-04-29 14:14 | -10.02238 | -36.07847 | 30015 ft | 487 kts | 213° |
| 2026-04-29 14:14 | -10.07788 | -36.11778 | 30011 ft | 485 kts | 213° |
| 2026-04-29 14:15 | -10.13320 | -36.15698 | 30013 ft | 484 kts | 213° |
| 2026-04-29 14:15 | -10.18837 | -36.19610 | 30013 ft | 484 kts | 213° |
| 2026-04-29 14:16 | -10.24351 | -36.23520 | 30012 ft | 484 kts | 213° |
| 2026-04-29 14:16 | -10.29876 | -36.27440 | 30010 ft | 484 kts | 213° |
| 2026-04-29 14:17 | -10.35360 | -36.31334 | 30012 ft | 484 kts | 213° |
| 2026-04-29 14:17 | -10.40889 | -36.35260 | 30011 ft | 485 kts | 213° |
| 2026-04-29 14:18 | -10.46428 | -36.39195 | 30012 ft | 486 kts | 213° |
| 2026-04-29 14:18 | -10.51030 | -36.42467 | 30008 ft | 486 kts | 213° |
| 2026-04-29 14:19 | -10.56568 | -36.46405 | 30015 ft | 486 kts | 213° |
| 2026-04-29 14:19 | -10.62114 | -36.50350 | 30014 ft | 486 kts | 213° |
| 2026-04-29 14:20 | -10.67652 | -36.54292 | 30014 ft | 486 kts | 213° |
| 2026-04-29 14:20 | -10.73196 | -36.58240 | 30015 ft | 486 kts | 213° |
| 2026-04-29 14:21 | -10.78731 | -36.62184 | 30018 ft | 486 kts | 213° |
| 2026-04-29 14:21 | -10.84237 | -36.66109 | 30017 ft | 486 kts | 213° |
| 2026-04-29 14:22 | -10.89763 | -36.70071 | 30016 ft | 485 kts | 213° |
| 2026-04-29 14:22 | -10.95283 | -36.74040 | 30017 ft | 485 kts | 213° |
| 2026-04-29 14:23 | -11.00798 | -36.78007 | 30010 ft | 485 kts | 213° |
| 2026-04-29 14:23 | -11.06309 | -36.81970 | 30007 ft | 485 kts | 213° |
| 2026-04-29 14:24 | -11.11823 | -36.85936 | 30006 ft | 485 kts | 213° |
| 2026-04-29 14:24 | -11.17304 | -36.89882 | 30007 ft | 485 kts | 213° |
| 2026-04-29 14:25 | -11.22808 | -36.93844 | 30011 ft | 485 kts | 213° |
| 2026-04-29 14:25 | -11.28346 | -36.97834 | 30017 ft | 485 kts | 213° |
| 2026-04-29 14:26 | -11.33819 | -37.01779 | 30020 ft | 485 kts | 213° |
| 2026-04-29 14:26 | -11.39322 | -37.05747 | 30017 ft | 485 kts | 213° |
| 2026-04-29 14:27 | -11.44824 | -37.09717 | 30017 ft | 485 kts | 213° |
| 2026-04-29 14:28 | -11.53085 | -37.15681 | 30021 ft | 485 kts | 213° |
| 2026-04-29 14:28 | -11.58594 | -37.19660 | 30024 ft | 485 kts | 213° |
| 2026-04-29 14:29 | -11.64071 | -37.23618 | 30019 ft | 485 kts | 213° |
| 2026-04-29 14:29 | -11.69585 | -37.27605 | 30021 ft | 485 kts | 213° |
| 2026-04-29 14:30 | -11.75088 | -37.31587 | 30028 ft | 485 kts | 213° |
| 2026-04-29 14:30 | -11.80593 | -37.35571 | 30029 ft | 485 kts | 213° |
| 2026-04-29 14:31 | -11.86094 | -37.39556 | 30028 ft | 485 kts | 214° |
| 2026-04-29 14:31 | -11.91593 | -37.43541 | 30029 ft | 484 kts | 214° |
| 2026-04-29 14:32 | -11.96925 | -37.47764 | 30031 ft | 485 kts | 218° |
| 2026-04-29 14:32 | -12.02025 | -37.52215 | 30026 ft | 485 kts | 219° |
| 2026-04-29 14:32 | -12.04608 | -37.54478 | 29256 ft | 492 kts | 219° |
| 2026-04-29 14:33 | -12.07208 | -37.56735 | 28455 ft | 489 kts | 218° |
| 2026-04-29 14:33 | -12.09812 | -37.58979 | 27511 ft | 490 kts | 218° |
| 2026-04-29 14:33 | -12.12426 | -37.61218 | 26556 ft | 491 kts | 218° |
| 2026-04-29 14:33 | -12.15054 | -37.63464 | 25543 ft | 494 kts | 218° |
| 2026-04-29 14:34 | -12.17691 | -37.65716 | 24805 ft | 491 kts | 218° |
| 2026-04-29 14:34 | -12.20313 | -37.67956 | 24045 ft | 489 kts | 218° |
| 2026-04-29 14:34 | -12.22923 | -37.70187 | 23227 ft | 487 kts | 218° |
| 2026-04-29 14:34 | -12.25512 | -37.72403 | 22415 ft | 483 kts | 218° |
| 2026-04-29 14:35 | -12.28083 | -37.74604 | 21666 ft | 479 kts | 218° |
| 2026-04-29 14:35 | -12.30623 | -37.76779 | 20924 ft | 474 kts | 217° |
| 2026-04-29 14:35 | -12.33144 | -37.78939 | 20176 ft | 471 kts | 217° |
| 2026-04-29 14:35 | -12.35646 | -37.81083 | 19435 ft | 468 kts | 217° |
| 2026-04-29 14:36 | -12.38101 | -37.83186 | 18709 ft | 465 kts | 217° |
| 2026-04-29 14:36 | -12.40577 | -37.85308 | 17910 ft | 462 kts | 217° |
| 2026-04-29 14:36 | -12.43021 | -37.87404 | 17191 ft | 452 kts | 217° |
| 2026-04-29 14:36 | -12.45418 | -37.89461 | 16404 ft | 447 kts | 217° |
| 2026-04-29 14:37 | -12.47773 | -37.91481 | 15704 ft | 438 kts | 217° |
| 2026-04-29 14:37 | -12.50106 | -37.93482 | 14985 ft | 436 kts | 217° |
| 2026-04-29 14:37 | -12.52413 | -37.95458 | 14337 ft | 428 kts | 217° |
| 2026-04-29 14:37 | -12.54678 | -37.97357 | 14147 ft | 414 kts | 217° |
| 2026-04-29 14:38 | -12.56902 | -37.99197 | 13622 ft | 412 kts | 216° |
| 2026-04-29 14:38 | -12.59123 | -38.01027 | 13027 ft | 407 kts | 216° |
| 2026-04-29 14:38 | -12.61289 | -38.02814 | 12446 ft | 403 kts | 217° |
| 2026-04-29 14:38 | -12.63466 | -38.04615 | 11833 ft | 399 kts | 217° |
| 2026-04-29 14:39 | -12.65619 | -38.06400 | 11295 ft | 394 kts | 217° |
| 2026-04-29 14:39 | -12.67704 | -38.08132 | 11119 ft | 379 kts | 217° |
| 2026-04-29 14:39 | -12.69715 | -38.09804 | 10945 ft | 366 kts | 217° |
| 2026-04-29 14:39 | -12.71657 | -38.11418 | 10790 ft | 354 kts | 217° |
| 2026-04-29 14:40 | -12.73536 | -38.12979 | 10628 ft | 342 kts | 217° |
| 2026-04-29 14:40 | -12.75357 | -38.14492 | 10483 ft | 332 kts | 217° |
| 2026-04-29 14:40 | -12.76925 | -38.16172 | 10312 ft | 322 kts | 236° |
| 2026-04-29 14:40 | -12.77778 | -38.18205 | 10061 ft | 311 kts | 255° |
| 2026-04-29 14:41 | -12.78238 | -38.20351 | 9951 ft | 295 kts | 257° |
| 2026-04-29 14:41 | -12.78639 | -38.22423 | 9450 ft | 295 kts | 257° |
| 2026-04-29 14:41 | -12.79027 | -38.24442 | 9073 ft | 291 kts | 257° |
| 2026-04-29 14:41 | -12.79428 | -38.26481 | 8785 ft | 290 kts | 257° |
| 2026-04-29 14:42 | -12.79831 | -38.28503 | 8487 ft | 290 kts | 257° |
| 2026-04-29 14:42 | -12.80238 | -38.30529 | 8192 ft | 289 kts | 257° |
| 2026-04-29 14:42 | -12.80648 | -38.32547 | 7896 ft | 289 kts | 256° |
| 2026-04-29 14:42 | -12.81059 | -38.34564 | 7605 ft | 289 kts | 257° |
| 2026-04-29 14:43 | -12.81467 | -38.36573 | 7299 ft | 286 kts | 256° |
| 2026-04-29 14:43 | -12.81869 | -38.38550 | 7008 ft | 282 kts | 256° |
| 2026-04-29 14:43 | -12.82272 | -38.40546 | 6562 ft | 290 kts | 257° |
| 2026-04-29 14:43 | -12.82682 | -38.42594 | 6088 ft | 294 kts | 257° |
| 2026-04-29 14:44 | -12.83087 | -38.44625 | 5571 ft | 294 kts | 256° |
| 2026-04-29 14:44 | -12.83490 | -38.46640 | 5421 ft | 277 kts | 257° |
| 2026-04-29 14:44 | -12.83859 | -38.48499 | 5304 ft | 257 kts | 256° |
| 2026-04-29 14:44 | -12.84462 | -38.50125 | 5133 ft | 235 kts | 230° |
| 2026-04-29 14:45 | -12.85625 | -38.51148 | 5018 ft | 210 kts | 203° |
| 2026-04-29 14:45 | -12.86962 | -38.51613 | 4754 ft | 201 kts | 185° |
| 2026-04-29 14:45 | -12.88334 | -38.51610 | 4444 ft | 195 kts | 167° |
| 2026-04-29 14:45 | -12.89666 | -38.51356 | 4139 ft | 194 kts | 165° |
| 2026-04-29 14:46 | -12.90956 | -38.51085 | 4031 ft | 182 kts | 165° |
| 2026-04-29 14:46 | -12.92153 | -38.50824 | 3820 ft | 172 kts | 160° |
| 2026-04-29 14:46 | -12.93147 | -38.50215 | 3450 ft | 166 kts | 130° |
| 2026-04-29 14:46 | -12.93491 | -38.49117 | 3034 ft | 164 kts | 90° |
| 2026-04-29 14:47 | -12.93561 | -38.47973 | 2761 ft | 159 kts | 98° |
| 2026-04-29 14:47 | -12.93566 | -38.46827 | 2570 ft | 166 kts | 88° |
| 2026-04-29 14:47 | -12.93466 | -38.45625 | 2363 ft | 172 kts | 86° |
| 2026-04-29 14:47 | -12.93351 | -38.44828 | 2203 ft | 165 kts | 82° |
| 2026-04-29 14:48 | -12.93081 | -38.43351 | 1914 ft | 154 kts | 82° |
| 2026-04-29 14:48 | -12.92851 | -38.42303 | 1711 ft | 150 kts | 84° |
| 2026-04-29 14:48 | -12.92668 | -38.41255 | 1569 ft | 150 kts | 81° |
| 2026-04-29 14:48 | -12.92444 | -38.40221 | 1333 ft | 143 kts | 83° |
| 2026-04-29 14:49 | -12.92267 | -38.39207 | 1166 ft | 145 kts | 81° |
| 2026-04-29 14:49 | -12.92045 | -38.38191 | 934 ft | 146 kts | 81° |
| 2026-04-29 14:49 | -12.91844 | -38.37191 | 772 ft | 140 kts | 80° |
| 2026-04-29 14:49 | -12.91641 | -38.36209 | 626 ft | 140 kts | 79° |
| 2026-04-29 14:50 | -12.91449 | -38.35235 | 393 ft | 134 kts | 81° |
| 2026-04-29 14:50 | -12.91266 | -38.34304 | 189 ft | 134 kts | 79° |
| 2026-04-29 14:50 | -12.91084 | -38.33379 | 57 ft | 129 kts | 78° |
| 2026-04-29 14:50 | -12.90924 | -38.32583 | 53 ft | 88 kts | 78° |
| 2026-04-29 14:51 | -12.90843 | -38.32183 | 57 ft | 33 kts | 78° |
| 2026-04-29 14:51 | -12.90799 | -38.31966 | 52 ft | 30 kts | 78° |
| 2026-04-29 14:51 | -12.90773 | -38.31839 | 59 ft | 12 kts | 78° |
| 2026-04-29 14:51 | -12.90781 | -38.31754 | 61 ft | 12 kts | 117° |
| 2026-04-29 14:52 | -12.90837 | -38.31717 | 61 ft | 8 kts | 168° |
| 2026-04-29 14:52 | -12.90890 | -38.31717 | 61 ft | 8 kts | 201° |
| 2026-04-29 14:52 | -12.90916 | -38.31761 | 60 ft | 8 kts | 256° |
| 2026-04-29 14:52 | -12.90929 | -38.31816 | 56 ft | 8 kts | 256° |
| 2026-04-29 14:53 | -12.90941 | -38.31875 | 57 ft | 9 kts | 259° |
| 2026-04-29 14:53 | -12.90952 | -38.31938 | 59 ft | 9 kts | 259° |
| 2026-04-29 14:53 | -12.90965 | -38.32002 | 58 ft | 9 kts | 258° |
| 2026-04-29 14:53 | -12.90979 | -38.32066 | 56 ft | 9 kts | 257° |
| 2026-04-29 14:54 | -12.90992 | -38.32129 | 57 ft | 9 kts | 259° |
| 2026-04-29 14:54 | -12.91003 | -38.32195 | 52 ft | 10 kts | 259° |
| 2026-04-29 14:54 | -12.91016 | -38.32264 | 51 ft | 10 kts | 256° |
| 2026-04-29 14:54 | -12.91030 | -38.32336 | 51 ft | 11 kts | 266° |
| 2026-04-29 14:55 | -12.91038 | -38.32413 | 53 ft | 12 kts | 260° |
| 2026-04-29 14:55 | -12.91054 | -38.32495 | 53 ft | 8 kts | 252° |
| 2026-04-29 14:55 | -12.91094 | -38.32528 | 52 ft | 8 kts | 194° |
| 2026-04-29 14:55 | -12.91137 | -38.32560 | 50 ft | 8 kts | 245° |
| 2026-04-29 14:56 | -12.91153 | -38.32625 | 50 ft | 11 kts | 258° |
| 2026-04-29 14:56 | -12.91169 | -38.32706 | 49 ft | 12 kts | 258° |
| 2026-04-29 14:56 | -12.91186 | -38.32790 | 48 ft | 12 kts | 258° |
| 2026-04-29 14:56 | -12.91203 | -38.32872 | 44 ft | 12 kts | 258° |
| 2026-04-29 14:57 | -12.91218 | -38.32951 | 44 ft | 11 kts | 258° |
| 2026-04-29 14:57 | -12.91234 | -38.33029 | 43 ft | 11 kts | 258° |
| 2026-04-29 14:57 | -12.91249 | -38.33103 | 44 ft | 11 kts | 258° |
| 2026-04-29 14:57 | -12.91262 | -38.33167 | 43 ft | 9 kts | 258° |
| 2026-04-29 14:58 | -12.91276 | -38.33237 | 42 ft | 11 kts | 259° |
| 2026-04-29 14:58 | -12.91288 | -38.33302 | 42 ft | 6 kts | 259° |
| 2026-04-29 14:58 | -12.91293 | -38.33320 | 41 ft | 0 kts | 242° |
| 2026-04-29 14:58 | -12.91314 | -38.33322 | 41 ft | 5 kts | 169° |
| 2026-04-29 14:59 | -12.91344 | -38.33316 | 40 ft | 1 kts | 169° |